createdAt,value
2022-09-15T00:00:55.909Z,0.75
2022-09-15T00:03:23.925Z,0.70
2022-09-15T00:05:53.490Z,0.77
2022-09-15T00:08:21.100Z,0.98
2022-09-15T00:10:53.940Z,1.02
2022-09-15T00:13:21.734Z,1.00
2022-09-15T00:15:48.770Z,0.70
2022-09-15T00:18:15.519Z,1.13
2022-09-15T00:20:44.610Z,0.90
2022-09-15T00:23:12.699Z,0.85
2022-09-15T00:25:50.211Z,0.80
2022-09-15T00:28:18.832Z,0.82
2022-09-15T00:30:48.517Z,1.00
2022-09-15T00:33:16.138Z,0.93
2022-09-15T00:35:44.514Z,1.00
2022-09-15T00:38:12.655Z,0.93
2022-09-15T00:40:51.320Z,1.13
2022-09-15T00:43:20.289Z,1.40
2022-09-15T00:45:48.628Z,1.20
2022-09-15T00:48:19.405Z,1.27
2022-09-15T00:50:51.057Z,1.60
2022-09-15T00:53:19.134Z,1.17
2022-09-15T00:55:48.371Z,1.40
2022-09-15T00:58:29.350Z,1.15
2022-09-15T01:01:01.384Z,1.50
2022-09-15T01:03:31.518Z,1.40
2022-09-15T01:06:19.851Z,1.85
2022-09-15T01:08:53.293Z,1.35
2022-09-15T01:11:20.022Z,1.40
2022-09-15T01:13:46.769Z,1.52
2022-09-15T01:16:19.773Z,1.52
2022-09-15T01:19:03.328Z,1.70
2022-09-15T01:21:55.643Z,1.60
2022-09-15T01:24:29.508Z,1.52
2022-09-15T01:27:13.690Z,1.50
2022-09-15T01:30:07.193Z,1.42
2022-09-15T01:32:56.284Z,1.65
2022-09-15T01:35:31.995Z,1.63
2022-09-15T01:38:06.851Z,1.40
2022-09-15T01:40:41.903Z,1.60
2022-09-15T01:43:10.174Z,1.52
2022-09-15T01:45:39.337Z,1.65
2022-09-15T01:48:07.208Z,1.67
2022-09-15T01:50:37.407Z,1.40
2022-09-15T01:53:13.694Z,1.63
2022-09-15T01:55:47.342Z,1.92
2022-09-15T01:58:14.025Z,1.77
2022-09-15T02:00:45.654Z,1.80
2022-09-15T02:03:19.042Z,1.50
2022-09-15T02:05:51.157Z,1.60
2022-09-15T02:08:27.111Z,1.92
2022-09-15T02:11:04.585Z,1.98
2022-09-15T02:13:48.705Z,1.90
2022-09-15T02:16:21.864Z,1.80
2022-09-15T02:18:51.666Z,1.80
2022-09-15T02:21:33.634Z,1.90
2022-09-15T02:24:06.221Z,1.67
2022-09-15T02:26:34.479Z,1.80
2022-09-15T02:29:05.401Z,1.63
2022-09-15T02:31:33.738Z,1.80
2022-09-15T02:34:10.878Z,1.65
2022-09-15T02:36:38.424Z,2.05
2022-09-15T02:39:08.344Z,1.77
2022-09-15T02:41:35.994Z,1.75
2022-09-15T02:44:03.638Z,1.70
2022-09-15T02:46:30.460Z,1.60
2022-09-15T02:48:57.311Z,1.80
2022-09-15T02:51:24.047Z,1.63
2022-09-15T02:53:51.026Z,1.60
2022-09-15T02:56:18.160Z,1.50
2022-09-15T02:58:44.887Z,1.60
2022-09-15T03:01:17.504Z,1.65
2022-09-15T03:03:45.434Z,1.60
2022-09-15T03:06:16.545Z,1.40
2022-09-15T03:08:46.926Z,1.50
2022-09-15T03:11:13.931Z,1.30
2022-09-15T03:13:40.775Z,1.30
2022-09-15T03:16:09.186Z,1.40
2022-09-15T03:18:36.983Z,1.60
2022-09-15T03:21:05.476Z,1.50
2022-09-15T03:23:32.815Z,1.30
2022-09-15T03:25:59.612Z,1.60
2022-09-15T03:28:26.997Z,1.92
2022-09-15T03:30:54.295Z,1.58
2022-09-15T03:33:22.186Z,1.65
2022-09-15T03:35:49.678Z,1.58
2022-09-15T03:38:16.946Z,1.58
2022-09-15T03:40:43.872Z,1.95
2022-09-15T03:43:14.289Z,1.70
2022-09-15T03:45:43.392Z,1.60
2022-09-15T03:48:10.157Z,1.60
2022-09-15T03:50:36.832Z,2.03
2022-09-15T03:53:03.997Z,1.92
2022-09-15T03:55:30.765Z,2.20
2022-09-15T03:57:57.417Z,2.65
2022-09-15T04:00:24.129Z,2.08
2022-09-15T04:02:50.953Z,2.20
2022-09-15T04:05:17.665Z,2.30
2022-09-15T04:07:44.453Z,2.30
2022-09-15T04:10:11.337Z,3.30
2022-09-15T04:12:38.102Z,2.33
2022-09-15T04:15:05.322Z,2.33
2022-09-15T04:17:32.380Z,2.60
2022-09-15T04:19:59.087Z,2.03
2022-09-15T04:22:25.821Z,2.38
2022-09-15T04:24:52.744Z,2.80
2022-09-15T04:27:19.473Z,2.50
2022-09-15T04:29:46.244Z,2.13
2022-09-15T04:32:12.905Z,2.40
2022-09-15T04:34:41.479Z,2.30
2022-09-15T04:37:08.354Z,2.40
2022-09-15T04:39:35.079Z,2.40
2022-09-15T04:42:05.193Z,1.95
2022-09-15T04:44:32.472Z,2.08
2022-09-15T04:46:59.335Z,2.53
2022-09-15T04:49:26.122Z,2.50
2022-09-15T04:51:53.753Z,1.90
2022-09-15T04:54:20.663Z,2.25
2022-09-15T04:56:47.445Z,2.75
2022-09-15T04:59:15.757Z,2.20
2022-09-15T05:01:43.032Z,2.30
2022-09-15T05:04:09.967Z,1.98
2022-09-15T05:06:37.076Z,2.20
2022-09-15T05:09:09.994Z,1.95
2022-09-15T05:11:37.727Z,2.33
2022-09-15T05:14:04.516Z,2.10
2022-09-15T05:16:31.894Z,2.63
2022-09-15T05:19:00.214Z,2.60
2022-09-15T05:21:27.494Z,2.50
2022-09-15T05:23:54.540Z,3.08
2022-09-15T05:26:24.339Z,2.60
2022-09-15T05:28:51.342Z,2.70
2022-09-15T05:31:22.339Z,3.00
2022-09-15T05:33:50.612Z,2.80
2022-09-15T05:36:19.238Z,2.80
2022-09-15T05:38:46.063Z,2.88
2022-09-15T05:41:16.112Z,2.67
2022-09-15T05:43:43.114Z,2.83
2022-09-15T05:46:10.574Z,2.50
2022-09-15T05:48:37.421Z,2.92
2022-09-15T05:51:04.401Z,2.50
2022-09-15T05:53:31.489Z,2.35
2022-09-15T05:55:59.974Z,2.45
2022-09-15T05:58:27.612Z,2.30
2022-09-15T06:00:54.773Z,2.63
2022-09-15T06:03:25.297Z,2.28
2022-09-15T06:06:02.125Z,2.40
2022-09-15T06:08:37.482Z,2.33
2022-09-15T06:11:09.893Z,2.10
2022-09-15T06:13:37.078Z,2.10
2022-09-15T06:16:09.483Z,2.40
2022-09-15T06:18:37.830Z,2.00
2022-09-15T06:21:05.660Z,1.52
2022-09-15T06:23:32.476Z,1.90
2022-09-15T06:26:11.350Z,1.40
2022-09-15T06:28:38.911Z,1.40
2022-09-15T06:31:10.197Z,1.13
2022-09-15T06:33:36.879Z,0.90
2022-09-15T06:36:03.733Z,1.33
2022-09-15T06:38:30.432Z,1.10
2022-09-15T06:40:58.433Z,0.93
2022-09-15T06:43:25.868Z,0.70
2022-09-15T06:45:52.680Z,0.65
2022-09-15T06:48:24.841Z,0.95
2022-09-15T06:50:55.938Z,0.40
2022-09-15T06:53:22.776Z,0.70
2022-09-15T06:55:49.865Z,0.40
2022-09-15T06:58:16.642Z,0.50
2022-09-15T07:00:43.266Z,0.40
2022-09-15T07:03:10.342Z,0.32
2022-09-15T07:05:37.197Z,0.30
2022-09-15T07:08:04.210Z,0.50
2022-09-15T07:10:31.066Z,0.25
2022-09-15T07:12:58.909Z,0.25
2022-09-15T07:15:27.356Z,0.30
2022-09-15T07:17:54.222Z,0.20
2022-09-15T07:20:21.028Z,0.25
2022-09-15T07:22:47.865Z,0.20
2022-09-15T07:25:14.554Z,0.20
2022-09-15T07:27:41.255Z,0.20
2022-09-15T07:30:08.611Z,0.28
2022-09-15T07:32:35.390Z,0.30
2022-09-15T07:35:02.570Z,0.13
2022-09-15T07:37:29.434Z,0.30
2022-09-15T07:39:56.170Z,0.25
2022-09-15T07:42:22.872Z,0.30
2022-09-15T07:44:49.571Z,0.20
2022-09-15T07:47:16.725Z,0.17
2022-09-15T07:49:43.469Z,0.10
2022-09-15T07:52:10.274Z,0.20
2022-09-15T07:54:36.974Z,0.55
2022-09-15T07:57:05.817Z,0.20
2022-09-15T07:59:32.886Z,0.75
2022-09-15T08:02:00.074Z,0.20
2022-09-15T08:04:26.863Z,0.20
2022-09-15T08:06:53.574Z,0.38
2022-09-15T08:09:20.624Z,0.30
2022-09-15T08:11:47.294Z,0.10
2022-09-15T08:14:14.007Z,0.30
2022-09-15T08:16:40.703Z,0.40
2022-09-15T08:19:07.793Z,0.40
2022-09-15T08:21:34.559Z,0.30
2022-09-15T08:24:01.517Z,0.20
2022-09-15T08:26:29.713Z,0.40
2022-09-15T08:28:56.567Z,0.20
2022-09-15T08:31:24.504Z,0.30
2022-09-15T08:33:53.046Z,0.30
2022-09-15T08:36:19.877Z,0.50
2022-09-15T08:38:47.116Z,18.95
2022-09-15T08:41:29.875Z,26.85
2022-09-15T08:44:01.139Z,5.95
2022-09-15T08:46:34.850Z,3.83
2022-09-15T08:49:40.846Z,4.63
2022-09-15T08:52:14.838Z,0.95
2022-09-15T08:54:41.547Z,1.00
2022-09-15T08:57:12.829Z,0.60
2022-09-15T08:59:40.039Z,0.30
2022-09-15T09:02:24.914Z,0.17
2022-09-15T09:05:29.333Z,0.20
2022-09-15T09:08:29.707Z,0.30
2022-09-15T09:11:10.466Z,0.35
2022-09-15T09:13:47.745Z,2.35
2022-09-15T09:16:32.535Z,5.97
2022-09-15T09:19:19.859Z,0.80
2022-09-15T09:21:52.405Z,0.43
2022-09-15T09:24:40.843Z,3.90
2022-09-15T09:27:18.159Z,15.40
2022-09-15T09:29:49.867Z,9.10
2022-09-15T09:32:21.703Z,3.33
2022-09-15T09:34:54.349Z,2.42
2022-09-15T09:37:21.007Z,1.08
2022-09-15T09:39:48.921Z,2.05
2022-09-15T09:42:18.431Z,3.45
2022-09-15T09:44:46.745Z,1.65
2022-09-15T09:47:13.677Z,2.67
2022-09-15T09:49:43.907Z,1.83
2022-09-15T09:52:12.286Z,0.50
2022-09-15T09:54:39.296Z,0.38
2022-09-15T09:57:31.651Z,1.85
2022-09-15T09:59:58.624Z,13.55
2022-09-15T10:02:28.842Z,8.18
2022-09-15T10:05:17.203Z,2.72
2022-09-15T10:07:44.000Z,0.80
2022-09-15T10:10:21.457Z,1.02
2022-09-15T10:12:48.419Z,1.60
2022-09-15T10:15:24.110Z,2.50
2022-09-15T10:17:51.941Z,5.05
2022-09-15T10:20:24.537Z,4.80
2022-09-15T10:22:52.016Z,4.57
2022-09-15T10:25:22.170Z,3.97
2022-09-15T10:28:18.313Z,3.47
2022-09-15T10:31:13.362Z,2.38
2022-09-15T10:33:41.926Z,3.60
2022-09-15T10:36:19.403Z,5.22
2022-09-15T10:39:03.361Z,5.90
2022-09-15T10:41:31.468Z,6.85
2022-09-15T10:44:29.394Z,7.68
2022-09-15T10:47:09.131Z,8.55
2022-09-15T10:49:55.225Z,9.23
2022-09-15T10:52:45.496Z,9.15
2022-09-15T10:55:51.692Z,8.73
2022-09-15T10:58:45.801Z,9.48
2022-09-15T11:01:31.967Z,10.68
2022-09-15T11:04:34.990Z,9.30
2022-09-15T11:07:12.544Z,10.65
2022-09-15T11:09:54.369Z,11.10
2022-09-15T11:12:48.380Z,12.18
2022-09-15T11:15:24.676Z,15.77
2022-09-15T11:18:15.896Z,12.85
2022-09-15T11:21:00.995Z,13.13
2022-09-15T11:26:04.233Z,8.63
2022-09-15T11:28:35.159Z,11.13
2022-09-15T11:31:09.657Z,9.82
2022-09-15T11:33:56.655Z,9.70
2022-09-15T11:36:28.944Z,11.05
2022-09-15T11:39:10.307Z,11.13
2022-09-15T11:41:41.670Z,12.73
2022-09-15T11:44:27.735Z,14.18
2022-09-15T11:47:16.400Z,10.13
2022-09-15T11:50:08.728Z,9.90
2022-09-15T11:52:54.049Z,10.45
2022-09-15T11:55:49.409Z,11.27
2022-09-15T11:58:34.649Z,8.98
2022-09-15T12:01:15.809Z,8.68
2022-09-15T12:03:55.132Z,7.82
2022-09-15T12:06:31.086Z,9.23
2022-09-15T12:09:03.451Z,5.78
2022-09-15T12:11:35.792Z,6.20
2022-09-15T12:14:04.250Z,6.03
2022-09-15T12:16:31.837Z,5.75
2022-09-15T12:19:08.982Z,6.03
2022-09-15T12:21:41.632Z,6.60
2022-09-15T12:24:11.102Z,6.72
2022-09-15T12:26:38.297Z,6.57
2022-09-15T12:29:27.960Z,5.65
2022-09-15T12:32:21.138Z,6.20
2022-09-15T12:35:17.575Z,6.57
2022-09-15T12:37:49.103Z,5.75
2022-09-15T12:40:25.335Z,6.10
2022-09-15T12:42:52.398Z,6.25
2022-09-15T12:45:25.784Z,7.15
2022-09-15T12:48:01.145Z,5.65
2022-09-15T12:50:30.114Z,7.20
2022-09-15T12:53:17.021Z,8.75
2022-09-15T12:55:56.147Z,10.05
2022-09-15T12:58:36.415Z,14.88
2022-09-15T13:01:18.948Z,15.00
2022-09-15T13:03:46.114Z,15.93
2022-09-15T13:06:29.615Z,16.52
2022-09-15T13:09:02.094Z,17.95
2022-09-15T13:11:37.550Z,18.92
2022-09-15T13:14:06.647Z,16.83
2022-09-15T13:16:50.660Z,17.00
2022-09-15T13:19:46.518Z,15.27
2022-09-15T13:22:23.323Z,14.65
2022-09-15T13:25:13.791Z,14.05
2022-09-15T13:27:52.530Z,15.15
2022-09-15T13:31:01.463Z,14.88
2022-09-15T13:40:09.543Z,13.50
2022-09-15T13:42:55.060Z,12.32
2022-09-15T13:45:35.961Z,12.93
2022-09-15T13:48:41.016Z,10.90
2022-09-15T13:51:19.625Z,12.15
2022-09-15T13:54:07.042Z,9.32
2022-09-15T13:56:37.975Z,8.90
2022-09-15T13:59:13.389Z,10.27
2022-09-15T14:01:42.441Z,8.82
2022-09-15T14:04:17.652Z,9.15
2022-09-15T14:06:50.426Z,9.40
2022-09-15T14:09:20.602Z,8.48
2022-09-15T14:11:49.589Z,9.88
2022-09-15T14:14:40.386Z,9.25
2022-09-15T14:17:19.294Z,8.55
2022-09-15T14:19:48.878Z,6.60
2022-09-15T14:22:27.768Z,6.53
2022-09-15T14:24:57.155Z,6.05
2022-09-15T14:27:32.419Z,6.07
2022-09-15T14:30:03.627Z,7.30
2022-09-15T14:32:32.377Z,5.65
2022-09-15T14:35:00.149Z,5.72
2022-09-15T14:37:28.447Z,5.68
2022-09-15T14:39:56.639Z,5.05
2022-09-15T14:42:30.933Z,4.78
2022-09-15T14:48:16.815Z,4.80
2022-09-15T14:50:45.509Z,3.55
2022-09-15T14:53:20.933Z,4.18
2022-09-15T14:56:14.621Z,3.63
2022-09-15T14:58:45.769Z,3.10
2022-09-15T15:01:20.883Z,3.20
2022-09-15T15:04:11.597Z,3.45
2022-09-15T15:07:19.933Z,2.83
2022-09-15T15:09:50.152Z,3.13
2022-09-15T15:12:29.196Z,3.13
2022-09-15T15:14:56.909Z,3.58
2022-09-15T15:17:36.832Z,3.00
2022-09-15T15:20:09.645Z,2.80
2022-09-15T15:22:41.433Z,2.60
2022-09-15T15:25:32.248Z,3.08
2022-09-15T15:27:59.969Z,2.95
2022-09-15T15:30:34.841Z,2.90
2022-09-15T15:33:23.636Z,3.17
2022-09-15T15:36:06.515Z,2.63
2022-09-15T15:38:42.685Z,2.95
2022-09-15T15:41:24.526Z,3.60
2022-09-15T15:43:59.334Z,3.10
2022-09-15T15:47:13.505Z,3.63
2022-09-15T15:50:02.228Z,3.45
2022-09-15T15:52:26.769Z,2.97
2022-09-15T15:54:53.606Z,3.13
2022-09-15T15:57:26.152Z,3.42
2022-09-15T15:59:57.740Z,3.10
2022-09-15T16:02:25.821Z,3.10
2022-09-15T16:04:52.627Z,3.17
2022-09-15T16:07:31.082Z,3.40
2022-09-15T16:10:04.870Z,2.63
2022-09-15T16:12:37.150Z,3.03
2022-09-15T16:15:19.505Z,2.92
2022-09-15T16:17:48.581Z,3.53
2022-09-15T16:20:24.670Z,3.30
2022-09-15T16:22:52.886Z,3.10
2022-09-15T16:25:42.064Z,3.20
2022-09-15T16:28:27.166Z,3.47
2022-09-15T16:33:26.022Z,3.28
2022-09-15T16:36:07.088Z,3.60
2022-09-15T16:38:38.627Z,3.30
2022-09-15T16:41:20.706Z,3.10
2022-09-15T16:43:51.047Z,3.00
2022-09-15T16:46:22.034Z,3.05
2022-09-15T16:48:49.907Z,3.47
2022-09-15T16:51:28.817Z,2.83
2022-09-15T16:53:58.178Z,3.08
2022-09-15T16:56:25.553Z,3.25
2022-09-15T16:58:58.794Z,3.20
2022-09-15T17:01:26.848Z,3.28
2022-09-15T17:03:53.701Z,3.22
2022-09-15T17:06:21.987Z,3.15
2022-09-15T17:08:48.818Z,3.00
2022-09-15T17:11:17.739Z,3.17
2022-09-15T17:13:45.658Z,2.97
2022-09-15T17:16:19.322Z,3.13
2022-09-15T17:18:46.760Z,2.90
2022-09-15T17:21:15.373Z,3.33
2022-09-15T17:23:45.408Z,3.10
2022-09-15T17:26:31.070Z,3.53
2022-09-15T17:28:58.276Z,3.55
2022-09-15T17:31:25.197Z,3.08
2022-09-15T17:33:52.433Z,3.17
2022-09-15T17:36:19.340Z,3.13
2022-09-15T17:38:48.647Z,3.03
2022-09-15T17:41:20.608Z,3.10
2022-09-15T17:43:47.964Z,3.58
2022-09-15T17:46:14.782Z,2.80
2022-09-15T17:48:41.569Z,3.05
2022-09-15T17:51:12.694Z,3.42
2022-09-15T17:53:39.437Z,3.63
2022-09-15T17:56:06.586Z,3.42
2022-09-15T17:58:33.353Z,3.65
2022-09-15T18:01:00.297Z,3.10
2022-09-15T18:03:33.326Z,3.55
2022-09-15T18:06:01.057Z,3.00
2022-09-15T18:08:27.856Z,3.42
2022-09-15T18:10:54.724Z,3.55
2022-09-15T18:13:23.964Z,3.30
2022-09-15T18:15:50.794Z,3.30
2022-09-15T18:18:26.217Z,3.30
2022-09-15T18:20:54.583Z,3.40
2022-09-15T18:23:23.834Z,3.20
2022-09-15T18:25:50.852Z,3.30
2022-09-15T18:28:18.746Z,3.70
2022-09-15T18:30:47.566Z,3.25
2022-09-15T18:33:20.334Z,3.67
2022-09-15T18:35:49.129Z,3.30
2022-09-15T18:38:16.531Z,3.40
2022-09-15T18:40:49.070Z,3.35
2022-09-15T18:43:20.430Z,3.30
2022-09-15T18:45:47.082Z,3.00
2022-09-15T18:48:14.165Z,3.20
2022-09-15T18:50:43.496Z,3.35
2022-09-15T18:53:10.543Z,3.80
2022-09-15T18:55:37.233Z,3.33
2022-09-15T18:58:03.879Z,3.95
2022-09-15T19:00:31.722Z,3.30
2022-09-15T19:02:59.996Z,2.88
2022-09-15T19:05:27.850Z,3.13
2022-09-15T19:07:55.249Z,3.03
2022-09-15T19:10:22.502Z,3.05
2022-09-15T19:12:49.594Z,3.17
2022-09-15T19:15:16.678Z,2.90
2022-09-15T19:17:43.544Z,3.13
2022-09-15T19:20:13.094Z,3.30
2022-09-15T19:22:40.804Z,3.50
2022-09-15T19:25:09.354Z,3.53
2022-09-15T19:27:36.724Z,3.10
2022-09-15T19:30:04.058Z,3.30
2022-09-15T19:32:32.622Z,3.67
2022-09-15T19:34:59.335Z,3.13
2022-09-15T19:37:26.526Z,3.47
2022-09-15T19:39:53.326Z,3.47
2022-09-15T19:42:20.141Z,3.20
2022-09-15T19:44:47.825Z,3.35
2022-09-15T19:47:14.564Z,3.70
2022-09-15T19:49:41.245Z,4.13
2022-09-15T19:52:08.115Z,3.55
2022-09-15T19:54:34.989Z,3.72
2022-09-15T19:57:02.236Z,3.40
2022-09-15T19:59:31.732Z,3.83
2022-09-15T20:01:59.364Z,3.35
2022-09-15T20:04:26.483Z,3.22
2022-09-15T20:06:53.118Z,3.55
2022-09-15T20:09:19.811Z,3.30
2022-09-15T20:11:46.733Z,3.47
2022-09-15T20:14:13.753Z,3.80
2022-09-15T20:16:40.676Z,3.60
2022-09-15T20:19:07.629Z,4.35
2022-09-15T20:21:49.691Z,3.75
2022-09-15T20:24:18.098Z,3.78
2022-09-15T20:26:44.812Z,4.07
2022-09-15T20:29:11.795Z,3.78
2022-09-15T20:31:39.042Z,3.60
2022-09-15T20:34:06.252Z,3.78
2022-09-15T20:36:36.036Z,3.97
2022-09-15T20:39:05.198Z,4.03
2022-09-15T20:41:32.031Z,4.05
2022-09-15T20:43:58.915Z,3.97
2022-09-15T20:46:25.708Z,3.53
2022-09-15T20:48:52.956Z,3.53
2022-09-15T20:51:31.616Z,3.67
2022-09-15T20:53:59.920Z,3.65
2022-09-15T20:56:28.494Z,3.60
2022-09-15T20:58:57.659Z,3.63
2022-09-15T21:01:29.503Z,3.90
2022-09-15T21:03:56.482Z,3.50
2022-09-15T21:06:25.187Z,3.40
2022-09-15T21:08:52.989Z,3.75
2022-09-15T21:11:20.647Z,3.80
2022-09-15T21:13:48.111Z,3.42
2022-09-15T21:16:18.381Z,3.60
2022-09-15T21:18:45.803Z,3.92
2022-09-15T21:21:15.152Z,3.45
2022-09-15T21:23:44.537Z,3.40
2022-09-15T21:26:13.462Z,3.17
2022-09-15T21:28:40.340Z,3.78
2022-09-15T21:31:15.930Z,3.53
2022-09-15T21:33:43.508Z,3.95
2022-09-15T21:36:11.591Z,3.90
2022-09-15T21:38:40.371Z,4.38
2022-09-15T21:41:09.342Z,4.35
2022-09-15T21:43:39.314Z,3.97
2022-09-15T21:46:08.420Z,4.10
2022-09-15T21:48:35.842Z,4.30
2022-09-15T21:51:03.417Z,4.28
2022-09-15T21:53:30.475Z,4.10
2022-09-15T21:56:00.842Z,4.70
2022-09-15T21:58:31.979Z,4.57
2022-09-15T22:00:58.758Z,4.10
2022-09-15T22:03:25.511Z,3.90
2022-09-15T22:05:52.154Z,4.82
2022-09-15T22:08:19.310Z,4.70
2022-09-15T22:10:46.220Z,4.13
2022-09-15T22:13:12.943Z,3.92
2022-09-15T22:15:39.703Z,4.82
2022-09-15T22:18:07.305Z,4.50
2022-09-15T22:20:33.968Z,4.55
2022-09-15T22:23:01.226Z,4.50
2022-09-15T22:25:28.935Z,4.32
2022-09-15T22:27:55.685Z,4.45
2022-09-15T22:30:22.341Z,4.63
2022-09-15T22:32:49.010Z,4.32
2022-09-15T22:35:17.270Z,4.43
2022-09-15T22:37:43.937Z,4.53
2022-09-15T22:40:10.940Z,4.15
2022-09-15T22:42:37.952Z,4.15
2022-09-15T22:45:05.143Z,4.20
2022-09-15T22:47:33.222Z,4.25
2022-09-15T22:49:59.895Z,4.38
2022-09-15T22:52:26.597Z,4.57
2022-09-15T22:54:53.247Z,4.30
2022-09-15T22:57:19.915Z,4.38
2022-09-15T22:59:46.606Z,4.13
2022-09-15T23:02:13.340Z,4.60
2022-09-15T23:04:40.056Z,4.18
2022-09-15T23:07:07.109Z,4.40
2022-09-15T23:09:34.243Z,4.45
2022-09-15T23:12:02.155Z,4.05
2022-09-15T23:14:29.170Z,3.90
2022-09-15T23:16:55.810Z,3.53
2022-09-15T23:19:22.639Z,4.13
2022-09-15T23:21:49.316Z,4.10
2022-09-15T23:24:17.020Z,4.18
2022-09-15T23:26:43.709Z,4.30
2022-09-15T23:29:10.645Z,4.13
2022-09-15T23:31:37.375Z,4.22
2022-09-15T23:34:04.120Z,4.18
2022-09-15T23:36:30.826Z,4.32
2022-09-15T23:38:57.506Z,4.10
2022-09-15T23:41:24.779Z,4.35
2022-09-15T23:43:51.562Z,4.00
2022-09-15T23:46:18.263Z,4.78
2022-09-15T23:48:45.139Z,4.32
2022-09-15T23:51:12.073Z,3.95
2022-09-15T23:53:38.781Z,4.07
2022-09-15T23:56:05.765Z,4.03
2022-09-15T23:58:32.580Z,4.60
